Home   Weather   Germany   Riesa   Past weeks
Flag for Germany

Past Weather in Riesa, Saxony, Germany — Yesterday and Last 2 Weeks

Currently: 77 °F. Passing clouds. (Weather station: Dresden-Klotzsche, Germany). See more current weather

Past Weather in Riesa — Graph

°F

Riesa Temperature Yesterday

Maximum temperature yesterday: 77 °F (at 5:50 pm)
Minimum temperature yesterday: 57 °F (at 3:20 am)
Average temperature yesterday: 68 °F

High & Low Weather Summary for the Past Weeks

 TemperatureHumidityPressure
High88 °F (Jul 10, 3:20 pm)100% (Jul 1, 12:50 am)30.12 "Hg (Jul 1, 12:50 am)
Low52 °F (Jul 3, 6:20 am)34% (Jul 8, 3:50 pm)29.62 "Hg (Jul 6, 3:20 pm)
Average67 °F69%29.90 "Hg
* Reported Jun 30 9:20 am — Jul 15 9:50 am, Riesa. Weather by CustomWeather, © 2024

Note: Actual official high and low records may vary slightly from our data, if they occured in-between our weather recording intervals... More about our weather records

Riesa Weather History for the Previous 24 Hours

Scroll right to see more
 ConditionsComfort  
Time TempWeatherWind HumidityBarometerVisibility
9:50 am
Mon, Jul 15
75 °FPassing clouds.8 mph50%29.95 "HgN/A
9:20 am73 °FSunny.6 mph53%29.95 "Hg10 mi
8:50 am72 °FSunny.7 mph61%29.95 "Hg10 mi
8:20 am68 °FSunny.8 mph69%29.98 "Hg10 mi
7:50 am66 °FPassing clouds.3 mph73%29.98 "HgN/A
7:20 am63 °FSunny.2 mph83%29.95 "Hg10 mi
6:50 am61 °FPassing clouds.3 mph88%29.95 "HgN/A
6:20 am59 °FSunny.1 mph94%29.95 "Hg10 mi
5:50 am59 °FSunny.7 mph94%29.98 "Hg10 mi
5:20 am59 °FSunny.5 mph88%29.98 "Hg10 mi
4:50 am59 °FClear.6 mph94%29.98 "Hg10 mi
4:20 am59 °FClear.3 mph94%29.95 "Hg10 mi
3:50 am61 °FClear.5 mph88%29.95 "Hg10 mi
3:20 am61 °FClear.2 mph83%29.95 "Hg10 mi
2:50 am63 °FClear.5 mph88%29.95 "Hg10 mi
2:20 am63 °FClear.5 mph88%29.95 "Hg10 mi
1:50 am63 °FClear.5 mph88%29.95 "Hg10 mi
1:20 am64 °FPassing clouds.3 mph78%29.95 "HgN/A
12:50 am64 °FClear.6 mph83%29.95 "Hg10 mi
12:20 am66 °FPassing clouds.3 mph73%29.95 "HgN/A
11:50 pm
Sun, Jul 14
68 °FClear.1 mph69%29.95 "Hg10 mi
11:20 pm68 °FPassing clouds.3 mph69%29.95 "HgN/A
10:50 pm68 °FClear.1 mph73%29.95 "Hg10 mi
10:20 pm70 °FClear.1 mph64%29.95 "Hg10 mi
9:50 pm70 °FClear.2 mph64%29.95 "Hg10 mi
9:20 pm72 °FClear.3 mph61%29.95 "Hg10 mi
8:50 pm73 °FSunny.3 mph53%29.95 "Hg10 mi
8:20 pm73 °FSunny.3 mph57%29.95 "Hg10 mi
7:50 pm73 °FSunny.2 mph57%29.92 "Hg10 mi
7:20 pm75 °FSunny.2 mph54%29.95 "Hg10 mi
6:50 pm75 °FSunny.2 mph50%29.92 "Hg10 mi
6:20 pm75 °FSunny.1 mph47%29.92 "Hg10 mi
5:50 pm77 °FSunny.3 mph44%29.92 "Hg10 mi
5:20 pm75 °FPassing clouds.3 mph50%29.92 "HgN/A
4:50 pm75 °FPassing clouds.6 mph50%29.92 "HgN/A
4:20 pm73 °FPassing clouds.5 mph57%29.95 "HgN/A
3:20 pm68 °FRain showers. Scattered clouds.7 mph73%29.95 "Hg6 mi
2:50 pm73 °FScattered showers. Passing clouds.9 mph50%29.95 "HgN/A
1:50 pm75 °FPassing clouds.8 mph50%29.95 "HgN/A
1:20 pm73 °FSunny.6 mph50%29.95 "Hg10 mi
12:50 pm75 °FPassing clouds.5 mph47%29.95 "HgN/A
12:20 pm72 °FScattered showers. Passing clouds.8 mph57%29.95 "HgN/A
11:50 am72 °FRain showers. Passing clouds.3 mph61%29.95 "HgN/A
11:20 am70 °FRain showers. Passing clouds.8 mph64%29.95 "HgN/A
Weather by CustomWeather, © 2024

See weather overview